Chingolo, Zambia
Current Conditions -  °F | °C
As of 11:00 PM on Friday 24 Oct 2014 (Local Time) from FLKK Reporting Station
Haze Haze  
Wind Chill: 70°   Ceiling: Unl
Heat Index: 70°   Visibility: 6mi
Dew Point: 48°   Wind: 3mph
Humidity: 46%   Direction: 110°ESE
Pressure: 30.03"   Gusts: NA
Location:  12.53°S, 27.87°E
Report Text: FLKK 242100Z 11003KT 9000 HZ FEW300 21/09 Q1017
Loading
Personal Weather Stations






























Interactive Weather Map
Tropical Storm Tracking
New forecast layout! Learn more

10-Day Weather Forecast

Advertisements
Track Severe Weather on mobile